createdAt,value
2023-03-28T00:01:13.988Z,101520.75
2023-03-28T00:03:42.448Z,101530.88
2023-03-28T00:06:12.634Z,101535.53
2023-03-28T00:08:41.613Z,101549.47
2023-03-28T00:11:12.598Z,101559.91
2023-03-28T00:13:40.459Z,101573.50
2023-03-28T00:16:12.699Z,101578.81
2023-03-28T00:18:41.593Z,101567.50
2023-03-28T00:21:23.269Z,101575.06
2023-03-28T00:23:52.607Z,101592.00
2023-03-28T00:26:20.735Z,101594.00
2023-03-28T00:28:48.799Z,101599.84
2023-03-28T00:31:17.948Z,101607.75
2023-03-28T00:33:47.569Z,101611.28
2023-03-28T00:36:18.531Z,101614.38
2023-03-28T00:38:46.556Z,101625.28
2023-03-28T00:41:16.104Z,101641.75
2023-03-28T00:43:45.405Z,101648.53
2023-03-28T00:46:21.581Z,101662.03
2023-03-28T00:48:54.581Z,101652.25
2023-03-28T00:51:26.305Z,101667.06
2023-03-28T00:53:58.021Z,101673.91
2023-03-28T00:56:29.768Z,101685.50
2023-03-28T00:58:58.593Z,101693.91
2023-03-28T01:01:28.328Z,101684.56
2023-03-28T01:04:02.493Z,101693.13
2023-03-28T01:06:33.479Z,101694.94
2023-03-28T01:09:04.594Z,101700.09
2023-03-28T01:11:33.390Z,101707.22
2023-03-28T01:14:04.395Z,101701.28
2023-03-28T01:16:33.890Z,101707.69
2023-03-28T01:19:02.996Z,101713.88
2023-03-28T01:22:11.081Z,101705.53
2023-03-28T01:25:03.487Z,101711.75
2023-03-28T01:27:41.212Z,101713.75
2023-03-28T01:30:31.612Z,101716.09
2023-03-28T01:33:42.100Z,101724.88
2023-03-28T01:36:49.266Z,101728.50
2023-03-28T01:39:28.915Z,101736.91
2023-03-28T01:42:03.664Z,101740.78
2023-03-28T01:44:42.212Z,101738.63
2023-03-28T01:47:17.709Z,101745.56
2023-03-28T01:49:53.122Z,101740.38
2023-03-28T01:52:25.537Z,101744.91
2023-03-28T01:55:01.986Z,101749.56
2023-03-28T01:57:35.921Z,101752.97
2023-03-28T02:00:12.712Z,101764.00
2023-03-28T02:02:45.022Z,101774.13
2023-03-28T02:05:15.826Z,101749.69
2023-03-28T02:07:46.185Z,101730.63
2023-03-28T02:10:18.488Z,101721.25
2023-03-28T02:12:51.805Z,101680.88
2023-03-28T02:15:22.836Z,101631.28
2023-03-28T02:17:55.428Z,101591.16
2023-03-28T02:20:26.628Z,101523.41
2023-03-28T02:22:57.780Z,101530.34
2023-03-28T02:25:27.258Z,101564.81
2023-03-28T02:27:58.497Z,101567.94
2023-03-28T02:30:27.316Z,101611.53
2023-03-28T02:33:00.594Z,101650.09
2023-03-28T02:35:37.823Z,101689.91
2023-03-28T02:38:15.993Z,101720.28
2023-03-28T02:40:57.249Z,101737.13
2023-03-28T02:43:38.146Z,101758.78
2023-03-28T02:46:23.714Z,101759.75
2023-03-28T02:49:18.573Z,101771.09
2023-03-28T02:51:58.613Z,101786.66
2023-03-28T02:54:34.126Z,101795.63
2023-03-28T02:57:10.514Z,101796.50
2023-03-28T02:59:43.691Z,101807.34
2023-03-28T03:02:13.104Z,101808.34
2023-03-28T03:04:40.813Z,101819.16
2023-03-28T03:07:09.529Z,101816.06
2023-03-28T03:09:37.337Z,101812.34
2023-03-28T03:12:07.052Z,101828.38
2023-03-28T03:14:37.002Z,101836.47
2023-03-28T03:17:05.756Z,101832.81
2023-03-28T03:19:33.592Z,101833.22
2023-03-28T03:22:01.752Z,101850.94
2023-03-28T03:24:29.500Z,101851.41
2023-03-28T03:26:57.243Z,101849.94
2023-03-28T03:29:26.359Z,101846.19
2023-03-28T03:32:06.857Z,101852.00
2023-03-28T03:34:37.011Z,101848.50
2023-03-28T03:37:05.099Z,101842.81
2023-03-28T03:39:32.855Z,101861.53
2023-03-28T03:42:00.581Z,101863.28
2023-03-28T03:44:29.874Z,101867.69
2023-03-28T03:46:57.929Z,101861.34
2023-03-28T03:49:25.986Z,101873.09
2023-03-28T03:51:53.977Z,101874.91
2023-03-28T03:54:21.849Z,101880.19
2023-03-28T03:56:49.643Z,101886.03
2023-03-28T03:59:17.470Z,101889.13
2023-03-28T04:01:46.628Z,101887.34
2023-03-28T04:04:15.587Z,101886.28
2023-03-28T04:06:43.351Z,101877.03
2023-03-28T04:09:11.532Z,101880.88
2023-03-28T04:11:39.226Z,101878.34
2023-03-28T04:14:07.028Z,101881.59
2023-03-28T04:16:40.968Z,101889.75
2023-03-28T04:19:13.785Z,101886.47
2023-03-28T04:21:43.746Z,101887.88
2023-03-28T04:24:15.652Z,101896.97
2023-03-28T04:26:45.809Z,101909.53
2023-03-28T04:29:13.770Z,101906.38
2023-03-28T04:31:41.626Z,101911.03
2023-03-28T04:34:10.961Z,101914.53
2023-03-28T04:36:41.024Z,101924.06
2023-03-28T04:39:09.005Z,101923.16
2023-03-28T04:41:36.848Z,101928.41
2023-03-28T04:44:04.588Z,101929.72
2023-03-28T04:46:32.722Z,101926.19
2023-03-28T04:49:00.454Z,101939.72
2023-03-28T04:51:29.566Z,101932.53
2023-03-28T04:53:57.313Z,101945.09
2023-03-28T04:56:25.096Z,101944.94
2023-03-28T04:58:52.803Z,101953.63
2023-03-28T05:01:22.597Z,101955.66
2023-03-28T05:03:50.528Z,101958.00
2023-03-28T05:06:18.527Z,101967.81
2023-03-28T05:08:47.764Z,101967.22
2023-03-28T05:11:15.534Z,101981.38
2023-03-28T05:13:43.373Z,101979.22
2023-03-28T05:16:11.153Z,101979.91
2023-03-28T05:18:38.884Z,101979.84
2023-03-28T05:21:07.273Z,101981.34
2023-03-28T05:23:35.008Z,101984.41
2023-03-28T05:26:04.156Z,101988.75
2023-03-28T05:28:31.951Z,101992.69
2023-03-28T05:30:59.821Z,101999.53
2023-03-28T05:33:27.712Z,102004.38
2023-03-28T05:35:55.505Z,102008.84
2023-03-28T05:38:23.326Z,102007.75
2023-03-28T05:40:51.120Z,102003.59
2023-03-28T05:43:20.379Z,101980.81
2023-03-28T05:45:48.268Z,101999.28
2023-03-28T05:48:16.095Z,101997.09
2023-03-28T05:50:45.553Z,101999.56
2023-03-28T05:53:13.292Z,101960.34
2023-03-28T05:55:42.196Z,101926.81
2023-03-28T05:58:10.010Z,101883.03
2023-03-28T06:00:39.156Z,101877.84
2023-03-28T06:03:07.483Z,101860.00
2023-03-28T06:05:35.729Z,101851.16
2023-03-28T06:08:03.939Z,101837.84
2023-03-28T06:10:31.893Z,101850.22
2023-03-28T06:12:59.615Z,101849.03
2023-03-28T06:15:27.377Z,101834.16
2023-03-28T06:17:57.885Z,101809.28
2023-03-28T06:20:25.788Z,101813.31
2023-03-28T06:22:53.516Z,101807.00
2023-03-28T06:25:21.301Z,101797.56
2023-03-28T06:27:49.021Z,101805.19
2023-03-28T06:30:17.025Z,101792.38
2023-03-28T06:32:44.797Z,101789.28
2023-03-28T06:35:13.981Z,101779.81
2023-03-28T06:37:41.743Z,101793.41
2023-03-28T06:40:10.826Z,101812.19
2023-03-28T06:42:38.561Z,101829.19
2023-03-28T06:45:07.206Z,101848.78
2023-03-28T06:47:34.957Z,101898.22
2023-03-28T06:50:02.761Z,101912.94
2023-03-28T06:52:31.836Z,101933.84
2023-03-28T06:55:00.438Z,101940.75
2023-03-28T06:57:28.276Z,101947.94
2023-03-28T06:59:55.991Z,101977.78
2023-03-28T07:02:23.860Z,101972.91
2023-03-28T07:04:51.633Z,101980.34
2023-03-28T07:07:19.396Z,101973.94
2023-03-28T07:09:49.931Z,101956.72
2023-03-28T07:12:18.771Z,101942.16
2023-03-28T07:14:47.637Z,101844.66
2023-03-28T07:17:15.903Z,101885.47
2023-03-28T07:19:44.928Z,101902.41
2023-03-28T07:22:12.808Z,101899.34
2023-03-28T07:24:42.375Z,101915.53
2023-03-28T07:27:15.990Z,101941.44
2023-03-28T07:29:44.185Z,101962.66
2023-03-28T07:32:15.396Z,101975.72
2023-03-28T07:34:45.206Z,101979.53
2023-03-28T07:37:12.950Z,102002.53
2023-03-28T07:39:43.654Z,101985.78
2023-03-28T07:42:13.808Z,101989.38
2023-03-28T07:44:42.459Z,101984.38
2023-03-28T07:47:11.082Z,101989.94
2023-03-28T07:49:39.583Z,102017.97
2023-03-28T07:52:07.716Z,102050.41
2023-03-28T07:54:35.445Z,102074.25
2023-03-28T07:57:03.260Z,102095.94
2023-03-28T07:59:32.345Z,102123.97
2023-03-28T08:02:00.122Z,102141.94
2023-03-28T08:04:28.045Z,102150.31
2023-03-28T08:06:56.156Z,102144.72
2023-03-28T08:09:23.855Z,102149.91
2023-03-28T08:11:51.584Z,102165.47
2023-03-28T08:14:19.797Z,102168.06
2023-03-28T08:16:48.940Z,102176.53
2023-03-28T08:19:16.725Z,102183.44
2023-03-28T08:21:44.762Z,102194.34
2023-03-28T08:24:19.649Z,102207.34
2023-03-28T08:26:50.246Z,102216.47
2023-03-28T08:29:18.000Z,102213.25
2023-03-28T08:31:45.851Z,102207.44
2023-03-28T08:34:15.062Z,102205.25
2023-03-28T08:36:43.269Z,102211.75
2023-03-28T08:39:11.041Z,102214.41
2023-03-28T08:41:57.018Z,102218.41
2023-03-28T08:44:37.502Z,102231.31
2023-03-28T08:47:11.621Z,102233.38
2023-03-28T08:49:46.557Z,102231.53
2023-03-28T08:52:17.093Z,102235.53
2023-03-28T08:54:48.540Z,102249.91
2023-03-28T08:57:21.131Z,102257.84
2023-03-28T08:59:54.762Z,102246.44
2023-03-28T09:02:26.686Z,102250.41
2023-03-28T09:05:08.234Z,102248.56
2023-03-28T09:07:54.733Z,102263.22
2023-03-28T09:10:28.567Z,102259.06
2023-03-28T09:13:07.986Z,102268.31
2023-03-28T09:15:46.820Z,102269.03
2023-03-28T09:18:45.636Z,102267.59
2023-03-28T09:21:24.545Z,102256.69
2023-03-28T09:24:07.296Z,102257.66
2023-03-28T09:26:37.612Z,102261.63
2023-03-28T09:29:09.292Z,102258.84
2023-03-28T09:31:41.413Z,102264.28
2023-03-28T09:34:19.956Z,102260.00
2023-03-28T09:36:53.426Z,102273.34
2023-03-28T09:39:33.364Z,102268.16
2023-03-28T09:42:05.337Z,102270.38
2023-03-28T09:44:53.598Z,102261.00
2023-03-28T09:47:22.390Z,102269.19
2023-03-28T09:49:56.460Z,102275.28
2023-03-28T09:52:31.909Z,102277.22
2023-03-28T09:55:01.403Z,102282.25
2023-03-28T09:58:06.265Z,102284.91
2023-03-28T10:00:40.824Z,102271.56
2023-03-28T10:03:23.136Z,102283.34
2023-03-28T10:05:52.058Z,102278.31
2023-03-28T10:08:27.305Z,102275.38
2023-03-28T10:11:02.282Z,102269.38
2023-03-28T10:13:36.866Z,102279.72
2023-03-28T10:16:06.292Z,102276.09
2023-03-28T10:18:34.664Z,102277.75
2023-03-28T10:21:11.773Z,102272.06
2023-03-28T10:23:45.527Z,102269.97
2023-03-28T10:26:18.279Z,102277.88
2023-03-28T10:28:46.168Z,102286.66
2023-03-28T10:31:29.058Z,102278.09
2023-03-28T10:33:59.193Z,102275.63
2023-03-28T10:36:31.595Z,102296.34
2023-03-28T10:39:13.647Z,102299.25
2023-03-28T10:41:53.425Z,102287.34
2023-03-28T10:44:28.234Z,102287.88
2023-03-28T10:46:58.170Z,102295.31
2023-03-28T10:49:28.371Z,102285.53
2023-03-28T10:51:58.005Z,102271.53
2023-03-28T10:54:56.569Z,102277.53
2023-03-28T10:57:33.598Z,102273.44
2023-03-28T11:00:10.731Z,102279.25
2023-03-28T11:03:08.273Z,102281.31
2023-03-28T11:05:52.270Z,102280.34
2023-03-28T11:08:37.670Z,102270.00
2023-03-28T11:11:17.671Z,102265.88
2023-03-28T11:13:54.522Z,102258.78
2023-03-28T11:16:32.092Z,102278.81
2023-03-28T11:19:11.320Z,102266.19
2023-03-28T11:21:52.269Z,102266.41
2023-03-28T11:24:29.468Z,102261.44
2023-03-28T11:27:15.309Z,102275.31
2023-03-28T11:29:49.221Z,102268.75
2023-03-28T11:32:22.604Z,102283.78
2023-03-28T11:35:04.063Z,102266.22
2023-03-28T11:37:37.528Z,102269.28
2023-03-28T11:40:14.145Z,102261.78
2023-03-28T11:42:48.392Z,102281.03
2023-03-28T11:45:37.485Z,102273.88
2023-03-28T11:48:13.611Z,102279.75
2023-03-28T11:50:49.991Z,102272.13
2023-03-28T11:53:23.941Z,102279.97
2023-03-28T11:55:58.615Z,102286.38
2023-03-28T11:58:30.923Z,102274.44
2023-03-28T12:01:05.084Z,102276.25
2023-03-28T12:03:38.923Z,102260.84
2023-03-28T12:06:13.546Z,102260.09
2023-03-28T12:08:47.318Z,102263.03
2023-03-28T12:11:21.510Z,102264.41
2023-03-28T12:14:08.928Z,102266.81
2023-03-28T12:16:45.419Z,102266.28
2023-03-28T12:19:18.367Z,102268.63
2023-03-28T12:21:51.651Z,102270.72
2023-03-28T12:24:26.755Z,102271.69
2023-03-28T12:27:04.603Z,102286.94
2023-03-28T12:29:40.237Z,102274.22
2023-03-28T12:32:27.205Z,102273.34
2023-03-28T12:35:05.108Z,102277.13
2023-03-28T12:37:39.755Z,102274.09
2023-03-28T12:40:20.657Z,102276.66
2023-03-28T12:42:50.794Z,102272.63
2023-03-28T12:45:24.506Z,102272.06
2023-03-28T12:47:59.457Z,102278.38
2023-03-28T12:50:31.192Z,102274.69
2023-03-28T12:53:00.331Z,102274.25
2023-03-28T12:55:46.150Z,102263.94
2023-03-28T12:58:22.695Z,102256.09
2023-03-28T13:01:20.271Z,102267.69
2023-03-28T13:03:58.515Z,102262.56
2023-03-28T13:06:38.053Z,102268.09
2023-03-28T13:09:43.637Z,102263.13
2023-03-28T13:12:29.199Z,102272.69
2023-03-28T13:15:02.581Z,102269.53
2023-03-28T13:17:32.911Z,102267.19
2023-03-28T13:20:25.695Z,102261.25
2023-03-28T13:22:58.387Z,102272.78
2023-03-28T13:25:32.656Z,102260.47
2023-03-28T13:28:22.515Z,102252.25
2023-03-28T13:31:06.751Z,102276.53
2023-03-28T13:33:38.236Z,102241.41
2023-03-28T13:36:31.018Z,102237.88
2023-03-28T13:39:08.088Z,102240.88
2023-03-28T13:41:53.722Z,102246.69
2023-03-28T13:44:24.144Z,102238.53
2023-03-28T13:46:54.101Z,102232.97
2023-03-28T13:49:25.266Z,102238.53
2023-03-28T13:52:00.767Z,102228.88
2023-03-28T13:54:28.734Z,102228.34
2023-03-28T13:57:03.432Z,102237.00
2023-03-28T13:59:35.671Z,102232.47
2023-03-28T14:02:14.197Z,102238.78
2023-03-28T14:04:42.033Z,102241.59
2023-03-28T14:07:14.655Z,102227.06
2023-03-28T14:09:42.369Z,102227.09
2023-03-28T14:12:14.789Z,102212.63
2023-03-28T14:14:44.000Z,102210.78
2023-03-28T14:17:16.665Z,102223.59
2023-03-28T14:19:47.384Z,102205.22
2023-03-28T14:22:19.693Z,102202.22
2023-03-28T14:24:51.988Z,102209.25
2023-03-28T14:27:30.924Z,102197.69
2023-03-28T14:30:00.876Z,102194.03
2023-03-28T14:32:32.288Z,102198.50
2023-03-28T14:35:18.951Z,102206.22
2023-03-28T14:37:52.794Z,102203.31
2023-03-28T14:40:28.824Z,102209.41
2023-03-28T14:43:00.552Z,102200.19
2023-03-28T14:45:29.104Z,102201.16
2023-03-28T14:47:57.799Z,102205.88
2023-03-28T14:50:27.736Z,102195.94
2023-03-28T14:53:01.484Z,102198.38
2023-03-28T14:55:30.085Z,102208.34
2023-03-28T14:57:59.722Z,102224.28
2023-03-28T15:00:36.416Z,102223.31
2023-03-28T15:03:07.245Z,102219.38
2023-03-28T15:05:37.378Z,102206.13
2023-03-28T15:08:08.619Z,102204.13
2023-03-28T15:10:36.802Z,102200.09
2023-03-28T15:13:08.310Z,102207.91
2023-03-28T15:15:38.158Z,102196.28
2023-03-28T15:18:11.837Z,102200.63
2023-03-28T15:20:43.502Z,102187.34
2023-03-28T15:23:17.635Z,102178.81
2023-03-28T15:25:45.882Z,102190.09
2023-03-28T15:28:17.637Z,102188.44
2023-03-28T15:30:47.585Z,102183.59
2023-03-28T15:33:19.359Z,102191.25
2023-03-28T15:35:47.200Z,102186.09
2023-03-28T15:38:21.544Z,102194.81
2023-03-28T15:40:51.512Z,102188.31
2023-03-28T15:43:39.018Z,102192.63
2023-03-28T15:46:12.816Z,102192.50
2023-03-28T15:48:42.399Z,102190.47
2023-03-28T15:51:15.681Z,102191.38
2023-03-28T15:53:47.596Z,102186.38
2023-03-28T15:56:24.343Z,102182.91
2023-03-28T15:58:52.681Z,102185.13
2023-03-28T16:01:26.383Z,102170.03
2023-03-28T16:04:16.106Z,102182.19
2023-03-28T16:06:45.633Z,102172.13
2023-03-28T16:09:18.605Z,102175.03
2023-03-28T16:11:47.582Z,102172.81
2023-03-28T16:14:18.399Z,102165.09
2023-03-28T16:16:46.454Z,102152.00
2023-03-28T16:19:20.293Z,102156.03
2023-03-28T16:21:48.318Z,102158.78
2023-03-28T16:24:17.683Z,102162.50
2023-03-28T16:26:45.511Z,102149.31
2023-03-28T16:29:13.455Z,102159.94
2023-03-28T16:31:41.510Z,102148.72
2023-03-28T16:34:10.195Z,102151.56
2023-03-28T16:36:38.573Z,102145.38
2023-03-28T16:39:08.018Z,102154.19
2023-03-28T16:41:37.473Z,102152.72
2023-03-28T16:44:06.128Z,102151.66
2023-03-28T16:46:34.003Z,102150.56
2023-03-28T16:49:01.787Z,102153.03
2023-03-28T16:51:29.632Z,102144.56
2023-03-28T16:53:57.407Z,102149.53
2023-03-28T16:56:27.297Z,102148.72
2023-03-28T16:58:56.407Z,102141.75
2023-03-28T17:01:24.279Z,102141.09
2023-03-28T17:03:53.604Z,102145.88
2023-03-28T17:06:21.907Z,102139.03
2023-03-28T17:08:49.794Z,102139.00
2023-03-28T17:11:17.587Z,102141.22
2023-03-28T17:13:47.491Z,102126.34
2023-03-28T17:16:16.915Z,102124.75
2023-03-28T17:18:44.672Z,102119.81
2023-03-28T17:21:17.348Z,102118.97
2023-03-28T17:23:47.822Z,102118.31
2023-03-28T17:26:16.428Z,102127.19
2023-03-28T17:28:44.720Z,102126.25
2023-03-28T17:31:15.133Z,102123.59
2023-03-28T17:33:44.817Z,102123.69
2023-03-28T17:36:22.553Z,102113.25
2023-03-28T17:38:51.367Z,102125.63
2023-03-28T17:41:19.646Z,102119.19
2023-03-28T17:43:47.384Z,102128.25
2023-03-28T17:46:16.350Z,102122.00
2023-03-28T17:48:45.859Z,102121.06
2023-03-28T17:51:13.901Z,102121.41
2023-03-28T17:53:43.492Z,102123.75
2023-03-28T17:56:12.623Z,102116.41
2023-03-28T17:58:40.676Z,102120.44
2023-03-28T18:01:10.547Z,102123.13
2023-03-28T18:03:39.137Z,102130.03
2023-03-28T18:06:08.894Z,102126.91
2023-03-28T18:08:38.040Z,102125.63
2023-03-28T18:11:08.481Z,102122.91
2023-03-28T18:13:37.880Z,102122.69
2023-03-28T18:16:09.303Z,102130.50
2023-03-28T18:18:37.586Z,102127.66
2023-03-28T18:21:07.608Z,102127.09
2023-03-28T18:23:37.002Z,102127.94
2023-03-28T18:26:05.451Z,102136.59
2023-03-28T18:28:33.501Z,102136.00
2023-03-28T18:31:08.096Z,102135.06
2023-03-28T18:33:36.160Z,102141.50
2023-03-28T18:36:04.254Z,102129.19
2023-03-28T18:38:38.228Z,102139.22
2023-03-28T18:41:08.451Z,102144.50
2023-03-28T18:43:37.193Z,102146.78
2023-03-28T18:46:07.758Z,102150.50
2023-03-28T18:48:36.541Z,102141.44
2023-03-28T18:51:06.385Z,102145.06
2023-03-28T18:53:34.374Z,102146.47
2023-03-28T18:56:03.640Z,102144.91
2023-03-28T18:58:31.549Z,102149.50
2023-03-28T19:01:00.322Z,102138.28
2023-03-28T19:03:29.873Z,102134.81
2023-03-28T19:05:58.265Z,102142.34
2023-03-28T19:08:27.234Z,102141.09
2023-03-28T19:10:55.804Z,102133.78
2023-03-28T19:13:25.743Z,102135.81
2023-03-28T19:16:00.262Z,102138.88
2023-03-28T19:18:29.189Z,102135.66
2023-03-28T19:20:58.088Z,102121.06
2023-03-28T19:23:27.477Z,102126.66
2023-03-28T19:25:56.168Z,102121.81
2023-03-28T19:28:25.465Z,102121.97
2023-03-28T19:30:58.622Z,102119.69
2023-03-28T19:33:26.556Z,102113.00
2023-03-28T19:35:54.524Z,102118.84
2023-03-28T19:38:23.224Z,102117.88
2023-03-28T19:40:52.265Z,102118.00
2023-03-28T19:43:23.749Z,102105.00
2023-03-28T19:45:53.382Z,102107.19
2023-03-28T19:48:21.623Z,102103.41
2023-03-28T19:50:49.916Z,102105.84
2023-03-28T19:53:17.740Z,102101.94
2023-03-28T19:55:52.361Z,102103.13
2023-03-28T19:58:20.352Z,102098.31
2023-03-28T20:00:49.056Z,102098.06
2023-03-28T20:03:18.670Z,102101.16
2023-03-28T20:05:48.303Z,102087.50
2023-03-28T20:08:18.351Z,102079.44
2023-03-28T20:10:48.282Z,102086.91
2023-03-28T20:13:16.712Z,102077.00
2023-03-28T20:15:46.256Z,102084.34
2023-03-28T20:18:20.406Z,102078.78
2023-03-28T20:20:54.410Z,102070.97
2023-03-28T20:23:23.939Z,102073.00
2023-03-28T20:25:53.437Z,102073.25
2023-03-28T20:28:24.350Z,102067.91
2023-03-28T20:30:53.336Z,102060.69
2023-03-28T20:33:21.527Z,102061.69
2023-03-28T20:35:54.111Z,102054.72
2023-03-28T20:38:22.157Z,102058.38
2023-03-28T20:40:50.211Z,102052.00
2023-03-28T20:43:20.108Z,102050.31
2023-03-28T20:45:53.696Z,102053.81
2023-03-28T20:48:34.176Z,102049.94
2023-03-28T20:51:04.566Z,102046.94
2023-03-28T20:53:33.048Z,102046.38
2023-03-28T20:56:03.477Z,102044.53
2023-03-28T20:58:32.618Z,102030.03
2023-03-28T21:01:02.561Z,102035.47
2023-03-28T21:03:49.055Z,102034.53
2023-03-28T21:06:21.465Z,102031.34
2023-03-28T21:08:51.051Z,102032.13
2023-03-28T21:11:21.234Z,102024.94
2023-03-28T21:13:49.363Z,102030.25
2023-03-28T21:16:17.987Z,102021.91
2023-03-28T21:18:46.785Z,102021.91
2023-03-28T21:21:16.453Z,102017.06
2023-03-28T21:23:46.793Z,102011.81
2023-03-28T21:26:16.500Z,102019.84
2023-03-28T21:28:44.647Z,102011.03
2023-03-28T21:31:14.270Z,102001.59
2023-03-28T21:33:42.692Z,102010.75
2023-03-28T21:36:13.263Z,102006.19
2023-03-28T21:38:41.609Z,102005.28
2023-03-28T21:41:11.228Z,102004.50
2023-03-28T21:43:40.164Z,101993.72
2023-03-28T21:46:08.779Z,101997.75
2023-03-28T21:48:37.580Z,101991.31
2023-03-28T21:51:06.280Z,101982.84
2023-03-28T21:53:36.845Z,101980.19
2023-03-28T21:56:06.677Z,101975.34
2023-03-28T21:58:36.185Z,101975.75
2023-03-28T22:01:04.874Z,101974.84
2023-03-28T22:03:36.203Z,101968.25
2023-03-28T22:06:04.142Z,101975.78
2023-03-28T22:08:31.890Z,101974.41
2023-03-28T22:11:02.255Z,101967.09
2023-03-28T22:13:30.552Z,101961.91
2023-03-28T22:16:00.138Z,101961.50
2023-03-28T22:18:30.688Z,101949.13
2023-03-28T22:21:02.583Z,101944.75
2023-03-28T22:23:30.748Z,101935.44
2023-03-28T22:25:58.637Z,101922.59
2023-03-28T22:28:26.683Z,101920.56
2023-03-28T22:30:55.524Z,101921.16
2023-03-28T22:33:25.507Z,101925.19
2023-03-28T22:35:53.621Z,101918.22
2023-03-28T22:38:21.460Z,101907.28
2023-03-28T22:40:49.191Z,101907.44
2023-03-28T22:43:17.608Z,101894.84
2023-03-28T22:45:45.332Z,101898.03
2023-03-28T22:48:15.123Z,101889.44
2023-03-28T22:50:45.316Z,101889.06
2023-03-28T22:53:14.301Z,101884.59
2023-03-28T22:55:42.950Z,101883.81
2023-03-28T22:58:10.676Z,101876.47
2023-03-28T23:00:38.813Z,101857.81
2023-03-28T23:03:08.080Z,101846.28
2023-03-28T23:05:36.351Z,101851.31
2023-03-28T23:08:06.425Z,101838.56
2023-03-28T23:10:34.783Z,101830.81
2023-03-28T23:13:02.818Z,101838.59
2023-03-28T23:15:30.716Z,101825.81
2023-03-28T23:17:58.648Z,101820.59
2023-03-28T23:20:26.627Z,101805.38
2023-03-28T23:22:54.976Z,101807.31
2023-03-28T23:25:24.252Z,101803.59
2023-03-28T23:27:51.984Z,101796.53
2023-03-28T23:30:19.813Z,101796.47
2023-03-28T23:32:47.720Z,101788.13
2023-03-28T23:35:15.510Z,101784.34
2023-03-28T23:37:43.256Z,101774.78
2023-03-28T23:40:14.783Z,101775.06
2023-03-28T23:42:45.278Z,101759.63
2023-03-28T23:45:15.593Z,101745.38
2023-03-28T23:47:44.314Z,101744.22
2023-03-28T23:50:12.980Z,101742.66
2023-03-28T23:52:40.921Z,101724.56
2023-03-28T23:55:09.949Z,101733.28
2023-03-28T23:57:37.806Z,101722.75
